createdAt,value
2023-04-15T00:04:35.760Z,16.23
2023-04-15T00:10:20.093Z,16.21
2023-04-15T00:16:04.465Z,16.17
2023-04-15T00:21:48.481Z,16.14
2023-04-15T00:27:32.451Z,16.12
2023-04-15T00:33:16.794Z,16.1
2023-04-15T00:39:00.918Z,16.1
2023-04-15T00:44:45.359Z,16.06
2023-04-15T00:50:29.382Z,16.04
2023-04-15T00:56:13.722Z,16.02
2023-04-15T01:01:59.145Z,16.03
2023-04-15T01:07:44.440Z,15.99
2023-04-15T01:13:29.445Z,15.95
2023-04-15T01:19:14.967Z,15.93
2023-04-15T01:25:01.655Z,15.91
2023-04-15T01:30:45.646Z,15.92
2023-04-15T01:36:29.639Z,15.93
2023-04-15T01:42:13.608Z,15.88
2023-04-15T01:47:57.754Z,15.85
2023-04-15T01:53:42.035Z,15.84
2023-04-15T01:59:25.862Z,15.91
2023-04-15T02:05:10.148Z,16.03
2023-04-15T02:10:54.212Z,15.88
2023-04-15T02:16:38.339Z,15.81
2023-04-15T02:22:22.876Z,15.79
2023-04-15T02:28:06.973Z,15.75
2023-04-15T02:33:51.078Z,15.89
2023-04-15T02:39:35.404Z,15.79
2023-04-15T02:45:19.705Z,15.73
2023-04-15T02:51:17.081Z,15.68
2023-04-15T02:57:01.243Z,15.68
2023-04-15T03:02:48.155Z,15.66
2023-04-15T03:08:36.060Z,15.63
2023-04-15T03:14:20.505Z,15.6
2023-04-15T03:20:06.072Z,15.58
2023-04-15T03:25:50.006Z,15.54
2023-04-15T03:31:33.997Z,15.56
2023-04-15T03:37:18.419Z,15.52
2023-04-15T03:43:02.433Z,15.48
2023-04-15T03:48:46.887Z,15.5
2023-04-15T03:54:30.937Z,15.46
2023-04-15T04:00:15.455Z,15.46
2023-04-15T04:05:59.611Z,15.43
2023-04-15T04:11:43.641Z,15.4
2023-04-15T04:17:27.868Z,15.41
2023-04-15T04:23:12.105Z,15.38
2023-04-15T04:28:56.322Z,15.37
2023-04-15T04:34:41.127Z,15.37
2023-04-15T04:40:25.238Z,15.34
2023-04-15T04:46:09.482Z,15.32
2023-04-15T04:51:54.014Z,15.3
2023-04-15T04:57:38.066Z,15.31
2023-04-15T05:03:22.517Z,15.31
2023-04-15T05:09:07.109Z,15.3
2023-04-15T05:14:51.185Z,15.3
2023-04-15T05:20:35.313Z,15.32
2023-04-15T05:26:20.354Z,15.32
2023-04-15T05:32:04.575Z,15.32
2023-04-15T05:37:48.743Z,15.32
2023-04-15T05:43:32.771Z,15.38
2023-04-15T05:49:16.867Z,15.38
2023-04-15T05:55:00.968Z,15.4
2023-04-15T06:00:45.059Z,15.45
2023-04-15T06:06:29.055Z,15.48
2023-04-15T06:12:12.960Z,15.49
2023-04-15T06:17:56.820Z,15.52
2023-04-15T06:23:41.067Z,15.61
2023-04-15T06:29:25.041Z,15.66
2023-04-15T06:35:09.584Z,15.78
2023-04-15T06:40:53.624Z,15.89
2023-04-15T06:46:37.578Z,16
2023-04-15T06:52:21.576Z,16.14
2023-04-15T06:58:05.551Z,16.29
2023-04-15T07:03:49.656Z,16.46
2023-04-15T07:09:34.009Z,16.61
2023-04-15T07:15:18.132Z,16.83
2023-04-15T07:21:03.612Z,17.02
2023-04-15T07:26:47.714Z,17.29
2023-04-15T07:32:31.732Z,17.46
2023-04-15T07:38:15.825Z,17.63
2023-04-15T07:43:59.931Z,17.8
2023-04-15T07:49:43.921Z,17.89
2023-04-15T07:55:28.492Z,18.15
2023-04-15T08:01:12.868Z,18.35
2023-04-15T08:06:56.751Z,18.44
2023-04-15T08:12:40.656Z,18.68
2023-04-15T08:18:24.665Z,18.91
2023-04-15T08:24:08.848Z,19.09
2023-04-15T08:29:52.781Z,19.35
2023-04-15T08:35:36.916Z,19.53
2023-04-15T08:41:23.496Z,19.75
2023-04-15T08:47:08.405Z,20.04
2023-04-15T08:52:53.293Z,20.12
2023-04-15T08:58:37.683Z,20.21
2023-04-15T09:04:23.805Z,20.38
2023-04-15T09:10:08.918Z,20.64
2023-04-15T09:15:53.256Z,20.73
2023-04-15T09:21:37.434Z,20.95
2023-04-15T09:27:21.211Z,21.02
2023-04-15T09:33:05.343Z,21.09
2023-04-15T09:38:59.854Z,21.29
2023-04-15T09:44:44.335Z,21.51
2023-04-15T09:50:30.208Z,21.63
2023-04-15T09:56:14.668Z,21.75
2023-04-15T10:01:59.670Z,21.87
2023-04-15T10:07:44.273Z,22.03
2023-04-15T10:13:30.273Z,22.13
2023-04-15T10:19:15.709Z,22.34
2023-04-15T10:24:59.919Z,22.41
2023-04-15T10:30:44.094Z,22.56
2023-04-15T10:36:28.577Z,22.85
2023-04-15T10:42:13.767Z,22.92
2023-04-15T10:48:02.949Z,23.35
2023-04-15T10:53:47.789Z,23.4
2023-04-15T10:59:33.514Z,23.54
2023-04-15T11:05:17.918Z,23.62
2023-04-15T11:11:01.796Z,23.77
2023-04-15T11:16:46.817Z,23.87
2023-04-15T11:22:31.005Z,23.92
2023-04-15T11:28:14.837Z,24.03
2023-04-15T11:33:59.869Z,24.33
2023-04-15T11:39:43.932Z,24.37
2023-04-15T11:45:28.230Z,24.48
2023-04-15T11:51:13.214Z,24.64
2023-04-15T11:56:57.353Z,24.85
2023-04-15T12:02:41.680Z,24.93
2023-04-15T12:08:26.275Z,25.03
2023-04-15T12:14:11.918Z,25.07
2023-04-15T12:19:56.310Z,25.19
2023-04-15T12:25:40.467Z,24.73
2023-04-15T12:31:24.695Z,24.61
2023-04-15T12:37:09.798Z,24.94
2023-04-15T12:42:53.791Z,24.97
2023-04-15T12:48:37.754Z,25.05
2023-04-15T12:54:21.694Z,25.24
2023-04-15T13:00:06.355Z,25.36
2023-04-15T13:05:50.374Z,25.37
2023-04-15T13:11:34.907Z,25.35
2023-04-15T13:17:18.898Z,25.72
2023-04-15T13:23:03.044Z,25.99
2023-04-15T13:28:47.192Z,25.86
2023-04-15T13:34:31.338Z,25.77
2023-04-15T13:40:15.470Z,25.75
2023-04-15T13:45:59.619Z,25.78
2023-04-15T13:51:44.035Z,25.8
2023-04-15T13:57:29.259Z,25.74
2023-04-15T14:03:13.478Z,25.86
2023-04-15T14:08:58.629Z,25.89
2023-04-15T14:14:42.886Z,25.95
2023-04-15T14:20:27.128Z,26.02
2023-04-15T14:26:11.130Z,26.1
2023-04-15T14:32:03.963Z,26.16
2023-04-15T14:37:56.676Z,26.3
2023-04-15T14:43:41.066Z,26.42
2023-04-15T14:49:25.274Z,26.59
2023-04-15T14:55:10.764Z,26.62
2023-04-15T15:00:55.150Z,26.89
2023-04-15T15:06:39.516Z,26.69
2023-04-15T15:12:23.604Z,26.48
2023-04-15T15:18:08.685Z,26.64
2023-04-15T15:23:52.866Z,26.79
2023-04-15T15:29:37.229Z,26.73
2023-04-15T15:35:21.312Z,26.8
2023-04-15T15:41:05.426Z,26.86
2023-04-15T15:46:49.860Z,26.93
2023-04-15T15:52:34.104Z,27.01
2023-04-15T15:58:17.845Z,27.2
2023-04-15T16:04:01.873Z,27.37
2023-04-15T16:09:46.834Z,27.43
2023-04-15T16:15:30.762Z,27.32
2023-04-15T16:21:15.050Z,26.94
2023-04-15T16:26:58.866Z,26.74
2023-04-15T16:32:42.928Z,26.18
2023-04-15T16:38:27.399Z,25.7
2023-04-15T16:44:11.452Z,25.37
2023-04-15T16:49:55.516Z,25.06
2023-04-15T16:55:39.486Z,24.81
2023-04-15T17:01:24.095Z,24.72
2023-04-15T17:07:08.759Z,25.65
2023-04-15T17:12:52.657Z,25.54
2023-04-15T17:18:38.799Z,26.64
2023-04-15T17:24:22.723Z,27.32
2023-04-15T17:30:07.545Z,27.96
2023-04-15T17:35:51.615Z,28.26
2023-04-15T17:41:36.721Z,28.34
2023-04-15T17:47:20.913Z,27.83
2023-04-15T17:53:05.050Z,26.85
2023-04-15T17:58:49.302Z,26.17
2023-04-15T18:04:33.625Z,25.57
2023-04-15T18:10:18.207Z,25.05
2023-04-15T18:16:02.194Z,24.63
2023-04-15T18:21:46.378Z,24.26
2023-04-15T18:27:30.810Z,23.95
2023-04-15T18:33:14.881Z,23.64
2023-04-15T18:38:58.689Z,23.32
2023-04-15T18:44:42.899Z,23.05
2023-04-15T18:50:28.101Z,22.74
2023-04-15T18:56:12.090Z,22.47
2023-04-15T19:01:56.053Z,22.2
2023-04-15T19:07:40.354Z,21.96
2023-04-15T19:13:24.436Z,21.74
2023-04-15T19:19:09.400Z,21.51
2023-04-15T19:24:54.108Z,21.29
2023-04-15T19:30:38.240Z,21.13
2023-04-15T19:36:22.429Z,20.9
2023-04-15T19:42:07.477Z,20.73
2023-04-15T19:47:51.667Z,20.55
2023-04-15T19:53:35.815Z,20.4
2023-04-15T19:59:19.736Z,20.24
2023-04-15T20:05:03.981Z,20.09
2023-04-15T20:10:48.002Z,19.93
2023-04-15T20:16:34.374Z,19.76
2023-04-15T20:22:18.401Z,19.6
2023-04-15T20:28:02.525Z,19.47
2023-04-15T20:33:46.446Z,19.33
2023-04-15T20:39:30.655Z,19.2
2023-04-15T20:45:14.824Z,19.06
2023-04-15T20:50:58.703Z,18.95
2023-04-15T20:56:42.704Z,18.85
2023-04-15T21:02:27.755Z,18.72
2023-04-15T21:08:12.606Z,18.62
2023-04-15T21:13:56.700Z,18.51
2023-04-15T21:19:40.780Z,18.44
2023-04-15T21:25:24.715Z,18.34
2023-04-15T21:31:08.741Z,18.25
2023-04-15T21:36:52.693Z,18.16
2023-04-15T21:42:36.767Z,18.05
2023-04-15T21:48:21.030Z,17.97
2023-04-15T21:54:05.213Z,17.96
2023-04-15T21:59:49.287Z,17.85
2023-04-15T22:05:33.229Z,17.75
2023-04-15T22:11:22.234Z,17.73
2023-04-15T22:17:07.338Z,17.61
2023-04-15T22:22:54.403Z,17.49
2023-04-15T22:28:38.177Z,17.7
2023-04-15T22:34:22.318Z,17.88
2023-04-15T22:40:06.856Z,17.67
2023-04-15T22:45:52.809Z,17.39
2023-04-15T22:51:36.920Z,17.56
2023-04-15T22:57:21.134Z,17.68
2023-04-15T23:03:05.284Z,17.37
2023-04-15T23:08:52.154Z,17.15
2023-04-15T23:14:37.088Z,16.96
2023-04-15T23:20:21.079Z,16.85
2023-04-15T23:26:05.040Z,16.76
2023-04-15T23:31:49.106Z,16.88
2023-04-15T23:37:33.618Z,16.82
2023-04-15T23:43:17.919Z,16.74
2023-04-15T23:49:02.036Z,16.64
2023-04-15T23:54:46.116Z,16.55
